Time;durP1;ratioP1;P1;durP2;ratioP2;P2;SDS_P1;SDS_P2;PMS_P1;PMS_P2;Temp;Humidity;BMP_temperature;BMP_pressure;BME280_temperature;BME280_humidity;BME280_pressure;Samples;Min_cycle;Max_cycle;Signal;HPM_P1;HPM_P2
2021/10/18 00:00:57;;;;;;;18.07;12.67;;;11.30;48.90;;;;;;5115887;28;20539;-89
2021/10/18 00:03:23;;;;;;;17.13;12.70;;;11.40;50.00;;;;;;5097665;28;20175;-90
2021/10/18 00:05:49;;;;;;;21.97;12.57;;;11.40;50.10;;;;;;5116475;28;20167;-89
2021/10/18 00:08:15;;;;;;;15.93;12.63;;;11.20;51.40;;;;;;5130041;28;20174;-87
2021/10/18 00:10:41;;;;;;;16.53;13.07;;;11.20;51.80;;;;;;5118083;28;20259;-89
2021/10/18 00:13:07;;;;;;;15.10;11.70;;;11.20;52.50;;;;;;5142499;27;20258;-87
2021/10/18 00:15:32;;;;;;;16.10;11.83;;;11.20;52.70;;;;;;5138798;27;20231;-89
2021/10/18 00:18:02;;;;;;;15.73;12.40;;;11.20;53.00;;;;;;5123521;28;20175;-88
2021/10/18 00:20:30;;;;;;;16.93;12.27;;;11.10;53.30;;;;;;5103922;28;20167;-88
2021/10/18 00:22:57;;;;;;;16.50;12.87;;;11.10;53.70;;;;;;5120067;28;20257;-90
2021/10/18 00:25:22;;;;;;;16.93;12.90;;;11.10;54.00;;;;;;5119327;28;20171;-89
2021/10/18 00:27:48;;;;;;;18.60;12.73;;;11.20;53.60;;;;;;5124576;28;20183;-86
2021/10/18 00:30:15;;;;;;;17.67;13.93;;;11.60;50.20;;;;;;5124481;28;20174;-90
2021/10/18 00:32:41;;;;;;;22.73;14.17;;;11.60;46.10;;;;;;5101176;28;20215;-89
2021/10/18 00:35:08;;;;;;;18.63;14.20;;;11.70;42.70;;;;;;5118383;28;20191;-90
2021/10/18 00:37:34;;;;;;;16.57;13.23;;;11.60;42.40;;;;;;5118780;28;20185;-89
2021/10/18 00:39:59;;;;;;;17.97;13.30;;;11.50;40.50;;;;;;5100490;28;20179;-88
2021/10/18 00:42:25;;;;;;;18.20;13.83;;;11.70;39.40;;;;;;5118595;28;20163;-89
2021/10/18 00:44:51;;;;;;;18.63;13.27;;;11.60;38.10;;;;;;5113209;28;20162;-84
2021/10/18 00:47:19;;;;;;;17.57;13.70;;;11.60;39.20;;;;;;5139273;28;20174;-85
2021/10/18 00:49:45;;;;;;;19.87;13.67;;;11.50;40.10;;;;;;5113483;28;20203;-90
2021/10/18 00:52:13;;;;;;;19.83;13.13;;;11.30;43.80;;;;;;5120675;28;20285;-89
2021/10/18 00:54:46;;;;;;;17.93;12.90;;;11.20;47.90;;;;;;5119856;28;20208;-89
2021/10/18 00:57:15;;;;;;;17.40;13.27;;;11.30;50.50;;;;;;5130172;28;20218;-88
2021/10/18 00:59:43;;;;;;;19.43;14.20;;;11.20;50.70;;;;;;5122642;28;20187;-89
2021/10/18 01:02:09;;;;;;;21.07;13.17;;;11.40;46.70;;;;;;5101647;28;20185;-90
2021/10/18 01:04:36;;;;;;;18.30;13.20;;;11.40;45.40;;;;;;5118901;28;20234;-89
2021/10/18 01:07:01;;;;;;;17.73;12.47;;;11.30;44.90;;;;;;5118142;28;20174;-86
2021/10/18 01:09:28;;;;;;;18.60;12.97;;;11.10;47.90;;;;;;5100070;28;20171;-90
2021/10/18 01:11:54;;;;;;;16.77;13.17;;;11.00;50.90;;;;;;5118712;28;20235;-90
2021/10/18 01:14:20;;;;;;;18.40;12.73;;;10.90;51.80;;;;;;5100723;28;20526;-90
2021/10/18 01:16:46;;;;;;;17.10;13.37;;;11.10;49.60;;;;;;5099429;28;20179;-90
2021/10/18 01:19:14;;;;;;;17.27;13.10;;;11.20;45.90;;;;;;5117985;28;20167;-87
2021/10/18 01:21:40;;;;;;;16.37;13.27;;;11.30;45.90;;;;;;5118041;28;20171;-90
2021/10/18 01:24:06;;;;;;;18.10;13.37;;;11.10;47.90;;;;;;5098489;28;20665;-90
2021/10/18 01:26:32;;;;;;;18.83;14.10;;;11.20;47.20;;;;;;5117548;28;20174;-87
2021/10/18 01:28:58;;;;;;;18.20;14.23;;;11.20;43.30;;;;;;5117819;28;20189;-89
2021/10/18 01:31:24;;;;;;;18.63;13.87;;;11.20;42.30;;;;;;5117852;28;20163;-89
2021/10/18 01:33:49;;;;;;;17.90;13.90;;;11.20;44.30;;;;;;5117710;28;20686;-90
2021/10/18 01:36:15;;;;;;;16.37;13.47;;;11.20;45.70;;;;;;5122273;28;20170;-89
2021/10/18 01:38:41;;;;;;;17.87;13.57;;;11.20;47.30;;;;;;5134281;27;20175;-89
2021/10/18 01:41:07;;;;;;;18.10;13.43;;;11.10;46.40;;;;;;5104302;28;20171;-85
2021/10/18 01:43:35;;;;;;;17.63;14.07;;;10.90;47.30;;;;;;5117714;28;20171;-89
2021/10/18 01:46:01;;;;;;;17.90;13.93;;;10.90;50.00;;;;;;5099161;28;20581;-90
2021/10/18 01:48:27;;;;;;;15.63;13.43;;;11.00;49.40;;;;;;5116928;28;20198;-88
2021/10/18 01:50:53;;;;;;;16.70;14.10;;;11.00;48.30;;;;;;5098184;28;20676;-89
2021/10/18 01:53:18;;;;;;;16.20;13.50;;;10.80;51.20;;;;;;5098652;28;20218;-87
2021/10/18 01:55:44;;;;;;;16.87;13.23;;;10.70;53.90;;;;;;5136633;27;20210;-82
2021/10/18 01:58:11;;;;;;;17.90;13.57;;;10.80;55.40;;;;;;5135821;28;20181;-89
2021/10/18 02:00:38;;;;;;;17.50;13.40;;;10.90;55.10;;;;;;5102434;28;20758;-88
2021/10/18 02:03:10;;;;;;;17.57;13.60;;;10.90;53.80;;;;;;5118951;28;20283;-89
2021/10/18 02:05:37;;;;;;;18.67;13.20;;;11.00;51.70;;;;;;5100353;28;20179;-88
2021/10/18 02:08:04;;;;;;;17.47;14.00;;;11.00;50.50;;;;;;5100091;28;20179;-89
2021/10/18 02:10:30;;;;;;;16.03;12.87;;;11.00;50.60;;;;;;5117063;28;20171;-90
2021/10/18 02:12:56;;;;;;;16.90;13.83;;;10.90;51.30;;;;;;5116216;28;20577;-90
2021/10/18 02:15:22;;;;;;;17.13;13.60;;;10.90;52.00;;;;;;5098638;28;20692;-91
2021/10/18 02:17:48;;;;;;;18.20;13.83;;;11.10;51.90;;;;;;5116990;28;20595;-91
2021/10/18 02:20:15;;;;;;;17.17;13.77;;;11.10;50.60;;;;;;5116593;28;20523;-90
2021/10/18 02:22:41;;;;;;;18.30;14.57;;;11.30;45.90;;;;;;5116523;28;20198;-91
2021/10/18 02:25:09;;;;;;;18.80;14.67;;;11.20;41.20;;;;;;5098307;28;20167;-89
2021/10/18 02:27:35;;;;;;;18.60;14.70;;;11.30;41.00;;;;;;5121873;28;20167;-90
2021/10/18 02:30:04;;;;;;;19.93;15.17;;;11.30;39.50;;;;;;5121406;28;20194;-89
2021/10/18 02:32:31;;;;;;;21.17;15.90;;;11.10;41.30;;;;;;5101293;28;20202;-90
2021/10/18 02:34:57;;;;;;;20.00;15.90;;;11.10;42.20;;;;;;5118939;28;20224;-91
2021/10/18 02:37:23;;;;;;;19.47;15.20;;;11.10;43.90;;;;;;5117011;28;20179;-90
2021/10/18 02:39:49;;;;;;;18.43;15.17;;;11.00;47.20;;;;;;5116183;28;20202;-86
2021/10/18 02:42:15;;;;;;;18.87;15.30;;;10.80;51.10;;;;;;5115732;28;20518;-90
2021/10/18 02:44:40;;;;;;;19.90;15.83;;;10.80;53.00;;;;;;5097983;28;20174;-91
2021/10/18 02:47:08;;;;;;;18.57;14.97;;;10.80;53.10;;;;;;5115989;28;20674;-90
2021/10/18 02:49:34;;;;;;;18.63;15.47;;;10.90;52.10;;;;;;5115547;28;20175;-85
2021/10/18 02:52:00;;;;;;;19.10;15.67;;;10.90;52.50;;;;;;5096279;28;20667;-85
2021/10/18 02:54:27;;;;;;;18.80;16.10;;;11.00;51.80;;;;;;5095697;28;20217;-84
2021/10/18 02:56:52;;;;;;;19.30;15.47;;;11.00;52.90;;;;;;5101135;28;20163;-88
2021/10/18 02:59:18;;;;;;;18.30;14.90;;;10.80;53.10;;;;;;5125053;28;20170;-84
2021/10/18 03:01:44;;;;;;;19.33;15.37;;;10.90;53.40;;;;;;5121175;28;20205;-83
2021/10/18 03:04:10;;;;;;;18.67;15.67;;;10.80;52.70;;;;;;5114686;28;20581;-84
2021/10/18 03:06:35;;;;;;;18.77;15.43;;;10.90;52.20;;;;;;5114282;28;20206;-83
2021/10/18 03:09:02;;;;;;;18.63;14.90;;;11.00;54.00;;;;;;5114219;28;20171;-84
2021/10/18 03:11:28;;;;;;;21.47;15.97;;;10.70;55.30;;;;;;5114234;28;20173;-86
2021/10/18 03:13:55;;;;;;;20.70;15.33;;;10.50;57.00;;;;;;5097335;28;20210;-89
2021/10/18 03:16:20;;;;;;;20.07;15.20;;;10.50;60.10;;;;;;5097184;28;20204;-87
2021/10/18 03:18:46;;;;;;;19.80;15.93;;;10.60;60.00;;;;;;5115805;28;20167;-89
2021/10/18 03:21:12;;;;;;;22.27;17.27;;;10.70;57.80;;;;;;5116137;28;20171;-88
2021/10/18 03:23:38;;;;;;;18.47;15.83;;;10.70;55.50;;;;;;5114721;28;20186;-89
2021/10/18 03:26:04;;;;;;;21.17;15.73;;;10.60;56.70;;;;;;5118308;28;20179;-88
2021/10/18 03:28:31;;;;;;;20.77;15.57;;;10.50;59.30;;;;;;5133837;28;20193;-86
2021/10/18 03:30:57;;;;;;;21.70;16.60;;;10.40;61.10;;;;;;5139020;27;20186;-85
2021/10/18 03:33:23;;;;;;;21.57;16.27;;;10.40;63.50;;;;;;5138832;27;20186;-85
2021/10/18 03:35:49;;;;;;;21.20;17.30;;;10.50;61.00;;;;;;5130270;28;20233;-90
2021/10/18 03:38:16;;;;;;;21.97;16.80;;;10.50;60.00;;;;;;5117825;28;20198;-89
2021/10/18 03:40:43;;;;;;;20.73;16.67;;;10.30;62.40;;;;;;5106106;28;20162;-89
2021/10/18 03:43:09;;;;;;;19.67;15.77;;;10.40;65.30;;;;;;5116333;28;20167;-89
2021/10/18 03:45:35;;;;;;;19.40;15.57;;;10.30;64.30;;;;;;5106903;28;20155;-82
2021/10/18 03:48:00;;;;;;;20.63;16.23;;;10.20;66.00;;;;;;5137983;27;20182;-86
2021/10/18 03:50:26;;;;;;;24.27;15.87;;;10.20;68.00;;;;;;5138648;27;20198;-85
2021/10/18 03:52:52;;;;;;;23.00;16.57;;;10.30;67.50;;;;;;5138258;27;20701;-87
2021/10/18 03:55:17;;;;;;;20.23;15.87;;;10.50;63.70;;;;;;5122171;27;20623;-89
2021/10/18 03:57:45;;;;;;;23.07;16.87;;;10.70;58.30;;;;;;5117287;28;20178;-90
2021/10/18 04:00:11;;;;;;;23.97;16.73;;;10.70;55.80;;;;;;5115767;28;20308;-89
2021/10/18 04:02:37;;;;;;;21.70;17.17;;;10.70;55.60;;;;;;5129017;28;20179;-87
2021/10/18 04:05:05;;;;;;;23.47;17.47;;;10.60;54.90;;;;;;5132056;28;20171;-89
2021/10/18 04:07:32;;;;;;;23.53;17.13;;;10.60;55.10;;;;;;5119776;28;20198;-88
2021/10/18 04:09:58;;;;;;;22.83;17.50;;;10.50;56.60;;;;;;5124796;28;20178;-88
2021/10/18 04:12:24;;;;;;;23.93;17.93;;;10.50;56.40;;;;;;5105521;28;20194;-87
2021/10/18 04:14:49;;;;;;;23.03;17.03;;;10.50;57.70;;;;;;5097315;28;20167;-90
2021/10/18 04:17:15;;;;;;;22.50;16.73;;;10.40;58.50;;;;;;5114786;28;20171;-90
2021/10/18 04:19:41;;;;;;;20.87;16.97;;;10.50;57.60;;;;;;5115510;28;20220;-90
2021/10/18 04:22:06;;;;;;;22.87;16.20;;;10.40;58.00;;;;;;5103373;28;20243;-82
2021/10/18 04:24:32;;;;;;;24.43;17.43;;;10.20;61.50;;;;;;5138491;27;20219;-85
2021/10/18 04:26:58;;;;;;;23.23;17.47;;;10.10;65.40;;;;;;5128399;28;20725;-85
2021/10/18 04:29:23;;;;;;;23.47;17.40;;;10.00;67.40;;;;;;5127741;28;20163;-88
2021/10/18 04:31:58;;;;;;;21.10;16.27;;;10.00;69.90;;;;;;5118282;28;20183;-90
2021/10/18 04:34:25;;;;;;;21.83;17.03;;;10.00;70.90;;;;;;5118773;28;20155;-90
2021/10/18 04:36:52;;;;;;;20.20;16.50;;;10.10;71.30;;;;;;5132135;27;20167;-85
2021/10/18 04:39:18;;;;;;;21.83;16.43;;;10.30;68.10;;;;;;5111956;28;20175;-87
2021/10/18 04:41:44;;;;;;;21.53;15.50;;;10.10;65.60;;;;;;5135293;27;20222;-82
2021/10/18 04:44:10;;;;;;;20.87;15.37;;;10.00;66.50;;;;;;5132321;27;20179;-83
2021/10/18 04:46:40;;;;;;;21.10;15.70;;;9.90;69.90;;;;;;5134398;27;20202;-82
2021/10/18 04:49:06;;;;;;;21.73;15.77;;;9.90;71.40;;;;;;5103770;28;20240;-89
2021/10/18 04:51:43;;;;;;;24.30;16.83;;;9.90;72.30;;;;;;5115260;28;20278;-88
2021/10/18 04:54:11;;;;;;;19.17;15.27;;;10.00;72.40;;;;;;5115818;28;20175;-85
2021/10/18 04:56:37;;;;;;;19.57;15.07;;;9.80;73.60;;;;;;5097830;28;20189;-85
2021/10/18 04:59:03;;;;;;;21.97;16.47;;;9.80;73.50;;;;;;5117423;28;20288;-87
2021/10/18 05:01:28;;;;;;;21.30;15.63;;;9.70;74.90;;;;;;5118020;28;20559;-89
2021/10/18 05:03:54;;;;;;;23.67;16.20;;;9.80;75.00;;;;;;5118613;28;20171;-89
2021/10/18 05:06:21;;;;;;;20.83;15.27;;;9.90;74.30;;;;;;5119706;28;20227;-88
2021/10/18 05:08:47;;;;;;;20.17;15.03;;;9.90;72.10;;;;;;5118037;28;20186;-88
2021/10/18 05:11:12;;;;;;;23.93;16.20;;;9.90;71.10;;;;;;5117969;28;20535;-89
2021/10/18 05:13:38;;;;;;;23.47;15.97;;;10.00;70.50;;;;;;5118393;28;20250;-85
2021/10/18 05:16:04;;;;;;;20.50;15.03;;;9.80;71.40;;;;;;5118824;28;20531;-89
2021/10/18 05:18:31;;;;;;;23.30;15.63;;;9.80;72.50;;;;;;5118399;28;20167;-89
2021/10/18 05:20:56;;;;;;;19.27;14.93;;;9.80;72.00;;;;;;5100670;28;20175;-89
2021/10/18 05:23:22;;;;;;;20.53;14.97;;;9.90;72.10;;;;;;5119023;28;20147;-87
2021/10/18 05:25:48;;;;;;;22.27;15.30;;;9.70;73.00;;;;;;5102635;28;20179;-88
2021/10/18 05:28:14;;;;;;;21.80;15.10;;;9.80;73.70;;;;;;5106870;28;20239;-88
2021/10/18 05:30:40;;;;;;;20.57;15.90;;;9.70;73.50;;;;;;5126479;28;20167;-89
2021/10/18 05:33:07;;;;;;;20.53;15.47;;;9.70;74.60;;;;;;5125240;28;20206;-87
2021/10/18 05:35:36;;;;;;;21.23;15.73;;;9.70;74.10;;;;;;5126982;28;20181;-85
2021/10/18 05:38:02;;;;;;;22.27;14.23;;;9.70;74.50;;;;;;5127076;28;20178;-91
2021/10/18 05:40:28;;;;;;;22.97;16.47;;;9.60;75.30;;;;;;5132250;28;20163;-89
2021/10/18 05:42:54;;;;;;;20.83;15.70;;;9.70;75.40;;;;;;5100998;28;20549;-89
2021/10/18 05:45:20;;;;;;;22.33;15.43;;;9.70;74.10;;;;;;5118162;28;20178;-85
2021/10/18 05:47:54;;;;;;;20.97;15.60;;;9.70;73.70;;;;;;5116803;28;20163;-88
2021/10/18 05:50:22;;;;;;;20.77;15.23;;;9.70;74.30;;;;;;5112545;28;20241;-87
2021/10/18 05:52:48;;;;;;;21.03;15.23;;;9.70;74.50;;;;;;5118197;28;20347;-89
2021/10/18 05:55:14;;;;;;;25.03;15.97;;;9.70;74.30;;;;;;5116798;28;20626;-89
2021/10/18 05:57:49;;;;;;;24.83;16.40;;;9.70;74.50;;;;;;5098668;28;20171;-88
2021/10/18 06:00:15;;;;;;;22.40;16.57;;;9.50;75.20;;;;;;5099068;28;20213;-90
2021/10/18 06:02:41;;;;;;;25.60;16.27;;;9.60;75.80;;;;;;5118424;28;20220;-86
2021/10/18 06:05:07;;;;;;;23.63;15.80;;;9.70;75.90;;;;;;5118751;28;20190;-89
2021/10/18 06:07:33;;;;;;;20.37;15.63;;;9.60;76.50;;;;;;5118507;28;20181;-91
2021/10/18 06:09:58;;;;;;;23.70;15.97;;;9.60;76.00;;;;;;5118101;28;20253;-90
2021/10/18 06:12:24;;;;;;;23.10;15.73;;;9.60;77.40;;;;;;5115469;28;20239;-92
2021/10/18 06:14:50;;;;;;;21.03;15.83;;;9.60;77.20;;;;;;5100217;28;20518;-91
2021/10/18 06:17:15;;;;;;;22.10;16.33;;;9.70;77.80;;;;;;5118730;28;20178;-92
2021/10/18 06:19:41;;;;;;;22.10;16.20;;;9.60;77.50;;;;;;5103497;28;20171;-96
2021/10/18 06:22:07;;;;;;;21.83;15.90;;;9.80;78.10;;;;;;5121835;28;20627;-94
2021/10/18 06:24:32;;;;;;;24.10;15.63;;;9.60;78.60;;;;;;5100654;28;20178;-93
2021/10/18 06:26:58;;;;;;;23.00;16.50;;;9.60;78.20;;;;;;5118833;28;20252;-93
2021/10/18 06:29:25;;;;;;;22.67;15.90;;;9.70;77.80;;;;;;5127611;28;20194;-90
2021/10/18 06:31:52;;;;;;;22.20;15.20;;;9.80;76.30;;;;;;5117596;28;20194;-93
2021/10/18 06:34:19;;;;;;;25.13;15.77;;;9.80;75.00;;;;;;5098521;28;20563;-86
2021/10/18 06:36:45;;;;;;;22.27;15.40;;;9.80;74.40;;;;;;5098503;28;20773;-87
2021/10/18 06:39:11;;;;;;;23.90;16.20;;;9.80;74.40;;;;;;5115193;28;20210;-90
2021/10/18 06:41:38;;;;;;;23.27;15.13;;;9.90;74.70;;;;;;5115283;28;20210;-87
2021/10/18 06:44:04;;;;;;;20.30;14.90;;;9.90;74.10;;;;;;5118019;28;20178;-90
2021/10/18 06:46:29;;;;;;;24.83;15.30;;;10.00;73.10;;;;;;5123572;28;20170;-91
2021/10/18 06:48:55;;;;;;;20.20;15.63;;;10.10;71.20;;;;;;5111204;28;20649;-82
2021/10/18 06:51:21;;;;;;;20.17;15.83;;;10.20;70.80;;;;;;5137431;27;20222;-84
2021/10/18 06:53:51;;;;;;;23.27;16.43;;;10.10;70.20;;;;;;5137311;27;20170;-86
2021/10/18 06:56:22;;;;;;;23.90;16.43;;;10.10;68.00;;;;;;5125850;28;20166;-89
2021/10/18 06:58:49;;;;;;;22.43;15.47;;;10.10;67.00;;;;;;5106551;28;20173;-86
2021/10/18 07:01:25;;;;;;;26.80;15.33;;;10.20;66.40;;;;;;5102869;28;20175;-88
2021/10/18 07:03:50;;;;;;;22.60;15.67;;;10.40;66.30;;;;;;5101953;28;20163;-88
2021/10/18 07:06:16;;;;;;;21.60;15.60;;;10.30;65.30;;;;;;5118003;28;20617;-90
2021/10/18 07:08:42;;;;;;;23.13;16.30;;;10.30;61.90;;;;;;5116973;28;20171;-92
2021/10/18 07:11:08;;;;;;;25.13;16.97;;;10.30;63.00;;;;;;5117131;28;20181;-93
2021/10/18 07:13:34;;;;;;;25.47;16.13;;;10.30;62.30;;;;;;5116862;28;20277;-90
2021/10/18 07:15:59;;;;;;;22.40;15.93;;;10.40;61.50;;;;;;5117067;28;20217;-92
2021/10/18 07:18:28;;;;;;;23.17;15.30;;;10.70;60.70;;;;;;5116387;28;20253;-86
2021/10/18 07:20:54;;;;;;;23.87;16.03;;;10.60;59.90;;;;;;5125210;28;20155;-91
2021/10/18 07:23:20;;;;;;;25.43;16.40;;;10.60;58.00;;;;;;5134265;28;20211;-84
2021/10/18 07:25:45;;;;;;;26.67;16.73;;;10.50;58.40;;;;;;5137237;27;20293;-88
2021/10/18 07:28:11;;;;;;;23.57;16.30;;;10.60;58.30;;;;;;5119803;28;20186;-83
2021/10/18 07:30:40;;;;;;;25.33;16.37;;;10.60;57.90;;;;;;5116124;28;20227;-86
2021/10/18 07:33:09;;;;;;;26.97;16.20;;;10.70;58.40;;;;;;5133665;28;20222;-83
2021/10/18 07:35:36;;;;;;;24.23;15.43;;;10.70;58.00;;;;;;5116431;28;20167;-91
2021/10/18 07:38:04;;;;;;;24.53;16.57;;;10.80;57.50;;;;;;5137343;28;20147;-89
2021/10/18 07:40:30;;;;;;;26.73;16.83;;;10.70;57.40;;;;;;5115446;28;20171;-91
2021/10/18 07:42:56;;;;;;;25.07;14.87;;;10.60;56.80;;;;;;5126161;28;20257;-91
2021/10/18 07:45:22;;;;;;;23.53;15.20;;;10.90;54.80;;;;;;5121302;28;20183;-87
2021/10/18 07:47:48;;;;;;;25.20;14.60;;;10.90;53.60;;;;;;5122146;28;20639;-91
2021/10/18 07:50:15;;;;;;;19.67;14.33;;;11.00;52.50;;;;;;5127919;28;20209;-84
2021/10/18 07:52:44;;;;;;;25.07;14.67;;;11.20;51.90;;;;;;5111640;28;20202;-86
2021/10/18 07:55:17;;;;;;;24.10;14.80;;;11.30;47.60;;;;;;5124287;28;20158;-84
2021/10/18 07:57:50;;;;;;;21.27;15.37;;;11.30;45.10;;;;;;5120692;28;20254;-87
2021/10/18 08:00:17;;;;;;;27.87;14.47;;;11.40;46.00;;;;;;5118405;28;20154;-88
2021/10/18 08:02:45;;;;;;;22.07;13.97;;;11.50;43.60;;;;;;5125829;28;20270;-88
2021/10/18 08:05:16;;;;;;;21.73;13.37;;;11.40;42.00;;;;;;5120549;28;20168;-87
2021/10/18 08:07:47;;;;;;;19.77;13.80;;;11.40;42.50;;;;;;5099709;28;20181;-83
2021/10/18 08:10:23;;;;;;;22.43;14.10;;;11.50;41.80;;;;;;5118912;28;20208;-87
2021/10/18 08:12:59;;;;;;;21.17;14.10;;;11.60;40.00;;;;;;5113006;28;20222;-87
2021/10/18 08:15:30;;;;;;;19.27;12.60;;;11.60;37.60;;;;;;5132524;28;20146;-87
2021/10/18 08:17:59;;;;;;;18.73;12.70;;;11.60;37.30;;;;;;5092671;28;20229;-87
2021/10/18 08:20:41;;;;;;;18.43;12.77;;;11.60;38.50;;;;;;5125605;28;20201;-85
2021/10/18 08:23:44;;;;;;;23.77;13.23;;;11.60;38.00;;;;;;5099995;28;20698;-89
2021/10/18 08:26:22;;;;;;;20.03;12.43;;;11.70;37.80;;;;;;5101469;28;20212;-87
2021/10/18 08:28:51;;;;;;;20.30;14.10;;;11.70;37.30;;;;;;5117743;28;20178;-87
2021/10/18 08:31:18;;;;;;;24.97;14.27;;;11.80;36.20;;;;;;5116293;28;20159;-88
2021/10/18 08:33:46;;;;;;;22.83;13.03;;;11.90;35.50;;;;;;5120267;28;20666;-87
2021/10/18 08:36:27;;;;;;;19.20;13.43;;;11.90;35.00;;;;;;5101131;28;20179;-89
2021/10/18 08:42:04;;;;;;;17.80;12.87;;;12.00;35.70;;;;;;5095832;28;20175;-90
2021/10/18 08:44:34;;;;;;;20.07;12.43;;;12.10;32.50;;;;;;5119246;28;20158;-89
2021/10/18 08:47:02;;;;;;;18.27;12.90;;;12.20;28.80;;;;;;5126737;28;20163;-85
2021/10/18 08:49:28;;;;;;;19.00;12.37;;;12.40;27.70;;;;;;5127774;28;20183;-92
2021/10/18 08:51:57;;;;;;;17.43;12.37;;;12.50;25.50;;;;;;5107763;28;20609;-90
2021/10/18 08:54:22;;;;;;;20.20;12.80;;;12.60;22.50;;;;;;5127244;28;20297;-87
2021/10/18 08:56:48;;;;;;;22.93;13.00;;;12.60;20.30;;;;;;5112267;28;20168;-88
2021/10/18 08:59:19;;;;;;;21.00;12.40;;;12.70;19.90;;;;;;5111457;28;20177;-90
2021/10/18 09:01:48;;;;;;;16.87;11.40;;;12.90;17.30;;;;;;5130030;28;20162;-90
2021/10/18 09:04:24;;;;;;;19.00;12.03;;;13.00;15.10;;;;;;5109363;28;20156;-92
2021/10/18 09:07:01;;;;;;;19.27;11.53;;;13.10;11.40;;;;;;5138414;28;20218;-85
2021/10/18 09:09:30;;;;;;;18.10;11.83;;;13.20;10.70;;;;;;5105147;28;20175;-90
2021/10/18 09:11:59;;;;;;;17.57;10.80;;;13.40;10.60;;;;;;5120940;28;20203;-89
2021/10/18 09:14:26;;;;;;;18.47;12.00;;;13.40;8.30;;;;;;5085028;28;20181;-90
2021/10/18 09:16:52;;;;;;;17.40;10.87;;;13.50;7.80;;;;;;5101032;28;20259;-90
2021/10/18 09:19:25;;;;;;;16.03;11.90;;;13.70;1.60;;;;;;5118884;28;20173;-91
2021/10/18 09:21:58;;;;;;;14.80;10.43;;;13.70;1.00;;;;;;5101333;28;20171;-89
2021/10/18 09:24:29;;;;;;;15.30;10.27;;;13.70;1.00;;;;;;5133216;28;20169;-87
2021/10/18 09:26:59;;;;;;;15.47;10.40;;;13.80;1.00;;;;;;5119597;28;20182;-87
2021/10/18 09:29:49;;;;;;;22.60;10.70;;;13.90;1.00;;;;;;5121573;28;20172;-89
2021/10/18 09:32:31;;;;;;;14.93;9.53;;;14.20;1.00;;;;;;5138022;27;20187;-85
2021/10/18 09:35:18;;;;;;;17.10;9.40;;;14.30;1.00;;;;;;5104590;28;20236;-82
2021/10/18 09:37:45;;;;;;;12.63;9.30;;;14.20;1.00;;;;;;5136958;28;20205;-84
2021/10/18 09:40:31;;;;;;;14.63;9.73;;;14.20;1.00;;;;;;5139008;27;20156;-82
2021/10/18 09:46:08;;;;;;;15.07;9.50;;;14.30;1.00;;;;;;5128423;28;20638;-85
2021/10/18 10:51:50;;;;;;;11.00;7.00;;;16.30;1.00;;;;;;5122188;28;20205;-89
2021/10/18 10:54:08;;;;;;;11.70;6.63;;;16.40;1.00;;;;;;5124373;28;20190;-91
2021/10/18 10:56:46;;;;;;;10.57;7.17;;;16.30;1.00;;;;;;5122478;28;20163;-92
2021/10/18 10:59:28;;;;;;;11.03;7.43;;;16.40;1.00;;;;;;5112568;28;20179;-86
2021/10/18 11:01:53;;;;;;;12.40;6.53;;;16.40;1.00;;;;;;5107285;28;20520;-91
2021/10/18 11:04:44;;;;;;;8.93;6.30;;;16.60;1.00;;;;;;5126304;28;20259;-85
2021/10/18 11:07:15;;;;;;;7.93;5.93;;;16.70;1.00;;;;;;5125331;28;20266;-90
2021/10/18 11:09:46;;;;;;;10.37;6.73;;;16.70;1.00;;;;;;5104582;28;20254;-91
2021/10/18 11:12:17;;;;;;;9.83;7.03;;;16.70;1.00;;;;;;5102384;28;20198;-92
2021/10/18 11:14:53;;;;;;;12.20;6.87;;;16.70;1.00;;;;;;5120256;28;20198;-92
2021/10/18 11:17:19;;;;;;;10.53;7.30;;;16.80;1.00;;;;;;5132470;28;20166;-86
2021/10/18 11:19:57;;;;;;;11.37;7.47;;;16.90;1.00;;;;;;5118892;28;20197;-82
2021/10/18 11:22:32;;;;;;;9.50;6.43;;;16.80;1.00;;;;;;5137038;28;20186;-84
2021/10/18 11:24:59;;;;;;;14.00;9.90;;;16.80;1.00;;;;;;5126473;28;20175;-84
2021/10/18 11:27:29;;;;;;;11.23;6.73;;;16.80;1.00;;;;;;5105094;28;20167;-85
2021/10/18 11:29:58;;;;;;;13.27;6.80;;;16.80;1.00;;;;;;5121352;28;20255;-88
2021/10/18 11:32:24;;;;;;;9.07;6.30;;;16.70;1.00;;;;;;5100185;28;20210;-87
2021/10/18 11:35:35;;;;;;;18.00;7.60;;;16.90;1.00;;;;;;5101956;28;20254;-86
2021/10/18 11:38:06;;;;;;;10.93;6.90;;;17.00;1.00;;;;;;5102789;28;20178;-91
2021/10/18 11:40:44;;;;;;;12.60;7.33;;;17.00;1.00;;;;;;5117560;28;20199;-90
2021/10/18 11:43:13;;;;;;;14.50;7.37;;;17.20;1.00;;;;;;5097978;28;20177;-86
2021/10/18 11:45:44;;;;;;;12.73;7.70;;;17.00;1.00;;;;;;5116234;28;20171;-85
2021/10/18 11:48:20;;;;;;;13.47;7.00;;;16.90;1.00;;;;;;5116646;28;20167;-87
2021/10/18 11:50:58;;;;;;;9.60;6.33;;;16.90;1.00;;;;;;5116101;28;20202;-90
2021/10/18 11:53:26;;;;;;;11.73;6.70;;;17.00;1.00;;;;;;5098408;28;20234;-87
2021/10/18 11:55:59;;;;;;;11.40;6.90;;;17.00;1.00;;;;;;5105782;28;20175;-90
2021/10/18 11:58:27;;;;;;;12.23;7.20;;;17.20;1.00;;;;;;5115161;28;20265;-89
2021/10/18 12:01:01;;;;;;;12.57;6.30;;;17.20;1.00;;;;;;5116207;28;20543;-89
2021/10/18 12:03:28;;;;;;;10.83;6.90;;;17.10;1.00;;;;;;5116392;28;20201;-85
2021/10/18 12:05:56;;;;;;;9.23;6.47;;;17.10;1.00;;;;;;5117303;28;20628;-86
2021/10/18 12:08:35;;;;;;;9.67;6.67;;;17.10;1.00;;;;;;5119046;28;20194;-90
2021/10/18 12:11:03;;;;;;;11.77;7.40;;;17.20;1.00;;;;;;5121799;28;20160;-87
2021/10/18 12:13:34;;;;;;;11.13;6.87;;;17.20;1.00;;;;;;5119301;28;20199;-87
2021/10/18 12:16:05;;;;;;;11.30;6.67;;;17.30;1.00;;;;;;5105137;28;20175;-86
2021/10/18 12:18:35;;;;;;;10.67;7.50;;;17.30;1.00;;;;;;5120715;28;20162;-86
2021/10/18 12:21:06;;;;;;;8.50;6.80;;;17.20;1.00;;;;;;5102558;28;20578;-90
2021/10/18 12:23:46;;;;;;;11.93;7.03;;;17.30;1.00;;;;;;5103927;28;20239;-88
2021/10/18 12:26:19;;;;;;;16.10;7.40;;;17.50;1.00;;;;;;5120351;28;20224;-90
2021/10/18 12:29:04;;;;;;;14.77;7.17;;;17.60;1.00;;;;;;5120415;28;20220;-89
2021/10/18 12:31:37;;;;;;;12.20;6.70;;;17.70;1.00;;;;;;5121289;28;20505;-88
2021/10/18 12:34:18;;;;;;;14.87;7.73;;;17.90;1.00;;;;;;5121036;28;20292;-86
2021/10/18 12:37:06;;;;;;;13.77;7.20;;;18.00;1.00;;;;;;5120945;28;20174;-89
2021/10/18 12:39:57;;;;;;;12.47;6.47;;;18.10;1.00;;;;;;5120255;28;20155;-88
2021/10/18 12:42:23;;;;;;;10.67;6.60;;;18.00;1.00;;;;;;5120188;28;20235;-90
2021/10/18 12:45:00;;;;;;;8.73;6.37;;;18.00;1.00;;;;;;5120063;28;20260;-88
2021/10/18 12:47:25;;;;;;;9.60;6.13;;;17.90;1.00;;;;;;5120316;28;20231;-86
2021/10/18 12:50:11;;;;;;;12.50;6.53;;;18.00;1.00;;;;;;5119756;28;20221;-92
2021/10/18 12:52:50;;;;;;;11.07;6.40;;;18.00;1.00;;;;;;5120123;28;20273;-89
2021/10/18 12:55:47;;;;;;;10.40;5.70;;;18.00;1.00;;;;;;5120468;28;20167;-88
2021/10/18 12:58:18;;;;;;;8.13;5.40;;;18.10;1.00;;;;;;5100376;28;20187;-84
2021/10/18 13:00:44;;;;;;;9.83;5.67;;;18.20;1.00;;;;;;5118558;28;20178;-87
2021/10/18 13:03:10;;;;;;;7.93;5.87;;;18.20;1.00;;;;;;5095921;28;20193;-85
2021/10/18 13:05:45;;;;;;;10.47;5.70;;;18.30;1.00;;;;;;5105047;28;20189;-88
2021/10/18 13:08:24;;;;;;;9.90;5.90;;;18.40;1.00;;;;;;5119463;28;20155;-88
2021/10/18 13:10:52;;;;;;;9.03;5.67;;;18.30;1.00;;;;;;5118527;28;20544;-89
2021/10/18 13:13:24;;;;;;;10.00;5.30;;;18.40;1.00;;;;;;5119529;28;20374;-89
2021/10/18 13:15:53;;;;;;;7.93;5.17;;;18.30;1.00;;;;;;5088754;28;20638;-87
2021/10/18 13:18:20;;;;;;;8.43;5.93;;;18.30;1.00;;;;;;5130626;28;20171;-87
2021/10/18 13:20:47;;;;;;;9.43;5.30;;;18.20;1.00;;;;;;5124948;28;20514;-83
2021/10/18 13:23:15;;;;;;;11.43;5.17;;;18.30;1.00;;;;;;5106654;28;20199;-82
2021/10/18 13:25:49;;;;;;;8.70;5.90;;;18.40;1.00;;;;;;5130789;28;20185;-81
2021/10/18 13:28:14;;;;;;;10.07;5.13;;;18.60;1.00;;;;;;5127878;28;20217;-80
2021/10/18 13:30:42;;;;;;;8.93;5.37;;;18.70;1.00;;;;;;5101454;28;20216;-86
2021/10/18 13:33:09;;;;;;;7.03;5.27;;;18.50;1.00;;;;;;5130367;28;20223;-81
2021/10/18 13:35:35;;;;;;;7.97;5.00;;;18.40;1.00;;;;;;5127804;28;20323;-89
2021/10/18 13:38:01;;;;;;;9.70;5.30;;;18.40;1.00;;;;;;5082743;28;20644;-87
2021/10/18 13:40:28;;;;;;;9.70;5.23;;;18.40;1.00;;;;;;5114195;28;20182;-85
2021/10/18 13:42:55;;;;;;;6.70;4.57;;;18.40;1.00;;;;;;5129696;28;20179;-84
2021/10/18 13:45:23;;;;;;;9.67;5.23;;;18.30;1.00;;;;;;5104371;28;20269;-88
2021/10/18 13:47:49;;;;;;;9.83;5.17;;;18.30;1.00;;;;;;5118274;28;20155;-87
2021/10/18 13:50:16;;;;;;;8.03;4.60;;;18.50;1.00;;;;;;5100606;28;20213;-83
2021/10/18 13:52:42;;;;;;;7.73;4.80;;;18.40;1.00;;;;;;5103372;28;20568;-85